메인 페이지
METAR-TAF:

METAR-TAF

공항 :

Fort St. John, 브리티시컬럼비아, 캐나다

위도: 56-14N, 경도: 120-44W, 고도: 695m

현재 날씨관측

예보는 40분 전, 10:00시(UTC)에 발표되었습니다.
동남동2kt
온도 -31°C
습도 68%
기압 1032 hPa
시정: 24.1km
맑음

METAR: CYXJ 181000Z 11002KT 15SM SKC M31/M35 A3048 RMK SLP414

시각: 03:40 (10:40 UTC)

예보

예보는 4 시간 2분 전, 06:38시(UTC)에 발표되었습니다.
예보 대상 시간: 18일 07시부터 18일 19시까지 (UTC)
여러 방향의 바람 3kt
시정: 10km
고도 4000ft 상공 구름 조금
일시적
18일 07시부터 18일 14시까지 (UTC)
시정: 8.0km
빙정
전환 중
18일 10시부터 18일 12시까지 (UTC)
북동6kt
18일 1400시부터 (UTC)
북동6kt
시정: 10km
고도 3000ft 상공 구름 조금
고도 24000ft 상공 구름 보통
일시적
18일 14시부터 18일 19시까지 (UTC)
시정: 6.4km
빙정
전환 중
18일 17시부터 18일 19시까지 (UTC)
5kt

TAF: CYXJ 180638Z 1807/1819 VRB03KT P6SM FEW040 TEMPO 1807/1814 5SM IC BECMG 1810/1812 04006KT FM181400 04006KT P6SM FEW030 SCT240 TEMPO 1814/1819 4SM IC BECMG 1817/1819 35005KT RMK NXT FCST BY 181300Z

4,000개 이상의 공항 관측 자료 및 예보 (METAR 및 TAF 보고).

지도상에서 검색 가능한 기상관측소가 노란 점과 빨간 점으로 표시되어 있습니다.

기상관측소 명을 보려면 표시 위로 마우스를 이동하세요.

날씨 관측과 예보를 보려면 클릭하세요.

지도 변경 : 확대하려면 엑스 표시가 있는 녹색 버튼, 축소하려면 빼기 표시가 있는 녹색 버튼, 다음 페이지의 지도를 보려면 녹색 화살표를 클릭하세요.


METAR-TAF: